createdAt,value
2019-05-18T00:00:03.903Z,100.00
2019-05-18T00:05:09.892Z,100.00
2019-05-18T00:15:26.384Z,100.00
2019-05-18T00:26:02.355Z,100.00
2019-05-18T00:31:07.863Z,100.00
2019-05-18T00:36:13.312Z,100.00
2019-05-18T00:41:18.626Z,100.00
2019-05-18T00:46:23.891Z,100.00
2019-05-18T00:51:29.280Z,100.00
2019-05-18T00:56:34.592Z,100.00
2019-05-18T01:01:39.969Z,100.00
2019-05-18T01:06:45.724Z,100.00
2019-05-18T01:11:51.143Z,100.00
2019-05-18T01:16:56.659Z,100.00
2019-05-18T01:22:01.971Z,100.00
2019-05-18T01:27:07.382Z,100.00
2019-05-18T01:32:12.706Z,100.00
2019-05-18T01:37:18.154Z,100.00
2019-05-18T01:42:23.622Z,100.00
2019-05-18T01:47:28.969Z,100.00
2019-05-18T01:52:34.337Z,100.00
2019-05-18T01:57:39.677Z,100.00
2019-05-18T02:02:45.366Z,100.00
2019-05-18T02:07:50.969Z,100.00
2019-05-18T02:12:56.376Z,100.00
2019-05-18T02:18:01.726Z,100.00
2019-05-18T02:23:07.170Z,100.00
2019-05-18T02:28:12.490Z,100.00
2019-05-18T02:33:17.913Z,100.00
2019-05-18T02:38:23.271Z,100.00
2019-05-18T02:43:28.582Z,100.00
2019-05-18T02:48:48.901Z,100.00
2019-05-18T02:53:41.065Z,100.00
2019-05-18T02:58:46.359Z,100.00
2019-05-18T03:03:51.771Z,100.00
2019-05-18T03:08:57.086Z,100.00
2019-05-18T03:14:02.577Z,100.00
2019-05-18T03:19:09.297Z,100.00
2019-05-18T03:24:14.736Z,100.00
2019-05-18T03:29:20.191Z,100.00
2019-05-18T03:34:25.622Z,100.00
2019-05-18T03:39:30.960Z,100.00
2019-05-18T03:44:36.201Z,100.00
2019-05-18T03:49:41.515Z,100.00
2019-05-18T03:54:46.907Z,100.00
2019-05-18T03:59:52.221Z,100.00
2019-05-18T04:04:57.631Z,100.00
2019-05-18T04:10:02.946Z,100.00
2019-05-18T04:15:08.766Z,100.00
2019-05-18T04:20:14.299Z,100.00
2019-05-18T04:25:19.588Z,100.00
2019-05-18T04:30:25.116Z,100.00
2019-05-18T04:35:30.383Z,100.00
2019-05-18T04:40:35.832Z,100.00
2019-05-18T04:45:41.214Z,100.00
2019-05-18T04:50:46.598Z,100.00
2019-05-18T04:55:51.944Z,100.00
2019-05-18T05:00:57.302Z,100.00
2019-05-18T05:06:02.618Z,100.00
2019-05-18T05:11:07.848Z,100.00
2019-05-18T05:16:13.460Z,100.00
2019-05-18T05:21:18.739Z,100.00
2019-05-18T05:26:24.206Z,100.00
2019-05-18T05:31:29.770Z,100.00
2019-05-18T05:36:35.030Z,100.00
2019-05-18T05:41:40.272Z,100.00
2019-05-18T05:46:45.643Z,100.00
2019-05-18T05:51:51.057Z,100.00
2019-05-18T05:56:56.379Z,100.00
2019-05-18T06:02:02.017Z,100.00
2019-05-18T06:07:07.375Z,100.00
2019-05-18T06:12:12.661Z,100.00
2019-05-18T06:17:18.062Z,100.00
2019-05-18T06:22:23.449Z,100.00
2019-05-18T06:27:28.814Z,100.00
2019-05-18T06:32:34.055Z,100.00
2019-05-18T06:37:39.427Z,100.00
2019-05-18T06:42:44.674Z,100.00
2019-05-18T06:47:50.027Z,100.00
2019-05-18T06:52:55.353Z,100.00
2019-05-18T06:58:01.985Z,100.00
2019-05-18T07:03:07.285Z,100.00
2019-05-18T07:08:12.938Z,100.00
2019-05-18T07:13:18.355Z,100.00
2019-05-18T07:18:23.585Z,100.00
2019-05-18T07:23:29.038Z,100.00
2019-05-18T07:28:34.646Z,100.00
2019-05-18T07:33:40.187Z,100.00
2019-05-18T07:38:45.835Z,100.00
2019-05-18T07:43:51.329Z,100.00
2019-05-18T07:50:12.295Z,100.00
2019-05-18T07:55:17.862Z,100.00
2019-05-18T08:00:22.875Z,100.00
2019-05-18T08:10:45.121Z,100.00
2019-05-18T08:15:50.449Z,100.00
2019-05-18T08:20:55.215Z,100.00
2019-05-18T08:26:00.160Z,100.00
2019-05-18T08:31:05.102Z,100.00
2019-05-18T08:36:10.830Z,100.00
2019-05-18T08:41:15.608Z,100.00
2019-05-18T08:46:20.631Z,100.00
2019-05-18T08:51:25.475Z,100.00
2019-05-18T08:56:30.715Z,100.00
2019-05-18T09:01:36.479Z,100.00
2019-05-18T09:06:41.222Z,100.00
2019-05-18T09:11:46.436Z,99.52
2019-05-18T09:16:51.567Z,98.74
2019-05-18T09:21:56.343Z,98.24
2019-05-18T09:27:02.236Z,91.65
2019-05-18T09:32:07.331Z,90.50
2019-05-18T09:37:12.354Z,87.69
2019-05-18T09:42:17.243Z,88.15
2019-05-18T09:47:22.667Z,87.96
2019-05-18T09:52:44.075Z,88.71
2019-05-18T09:57:34.187Z,89.47
2019-05-18T10:02:39.487Z,89.10
2019-05-18T10:07:44.460Z,89.15
2019-05-18T10:12:49.294Z,87.96
2019-05-18T10:17:54.224Z,88.50
2019-05-18T10:23:11.966Z,87.08
2019-05-18T10:28:05.730Z,85.52
2019-05-18T10:33:11.006Z,84.09
2019-05-18T10:38:16.087Z,83.34
2019-05-18T10:43:20.841Z,82.78
2019-05-18T10:48:25.745Z,83.96
2019-05-18T10:53:30.526Z,84.25
2019-05-18T10:58:35.888Z,83.87
2019-05-18T11:03:40.769Z,85.25
2019-05-18T11:08:45.658Z,86.23
2019-05-18T11:13:50.407Z,86.86
2019-05-18T11:18:55.176Z,82.54
2019-05-18T11:24:00.087Z,82.82
2019-05-18T11:29:04.870Z,81.86
2019-05-18T11:34:09.712Z,79.22
2019-05-18T11:39:14.547Z,78.48
2019-05-18T11:44:19.549Z,80.51
2019-05-18T11:49:24.374Z,81.10
2019-05-18T11:54:29.104Z,80.69
2019-05-18T11:59:34.929Z,80.07
2019-05-18T12:04:40.121Z,80.76
2019-05-18T12:09:45.110Z,80.40
2019-05-18T12:14:49.789Z,78.31
2019-05-18T12:19:54.669Z,71.83
2019-05-18T12:24:59.451Z,65.37
2019-05-18T12:30:04.483Z,67.80
2019-05-18T12:35:09.599Z,68.21
2019-05-18T12:40:18.660Z,69.12
2019-05-18T12:45:24.111Z,66.26
2019-05-18T12:50:29.320Z,67.23
2019-05-18T12:55:34.342Z,69.55
2019-05-18T13:00:39.221Z,65.67
2019-05-18T13:05:44.071Z,67.45
2019-05-18T13:10:49.029Z,69.23
2019-05-18T13:15:53.695Z,66.20
2019-05-18T13:20:58.746Z,66.65
2019-05-18T13:26:03.941Z,65.91
2019-05-18T13:31:08.950Z,65.50
2019-05-18T13:36:13.759Z,63.51
2019-05-18T13:41:18.636Z,60.21
2019-05-18T13:46:24.106Z,59.96
2019-05-18T13:51:28.978Z,59.31
2019-05-18T13:56:34.029Z,56.49
2019-05-18T14:01:38.991Z,57.06
2019-05-18T14:06:43.958Z,57.85
2019-05-18T14:11:49.155Z,61.01
2019-05-18T14:16:54.119Z,60.06
2019-05-18T14:21:59.272Z,59.40
2019-05-18T14:27:04.166Z,60.20
2019-05-18T14:32:11.090Z,60.25
2019-05-18T14:37:16.026Z,62.67
2019-05-18T14:42:21.043Z,62.62
2019-05-18T14:47:27.514Z,61.96
2019-05-18T14:52:32.563Z,63.23
2019-05-18T14:57:37.419Z,62.80
2019-05-18T15:02:42.189Z,64.77
2019-05-18T15:07:46.937Z,66.76
2019-05-18T15:12:51.795Z,64.45
2019-05-18T15:17:56.937Z,68.20
2019-05-18T15:23:01.724Z,71.00
2019-05-18T15:28:07.046Z,72.04
2019-05-18T15:33:11.936Z,70.19
2019-05-18T15:38:16.737Z,71.40
2019-05-18T15:43:21.558Z,74.34
2019-05-18T15:48:26.789Z,75.28
2019-05-18T15:53:31.677Z,72.83
2019-05-18T15:58:36.555Z,70.75
2019-05-18T16:03:41.513Z,68.85
2019-05-18T16:08:46.621Z,69.82
2019-05-18T16:13:51.536Z,71.52
2019-05-18T16:18:56.362Z,74.05
2019-05-18T16:24:01.260Z,75.45
2019-05-18T16:29:06.240Z,75.38
2019-05-18T16:34:11.450Z,75.08
2019-05-18T16:39:16.394Z,75.61
2019-05-18T16:44:21.259Z,75.90
2019-05-18T16:49:26.125Z,76.45
2019-05-18T16:54:30.898Z,76.74
2019-05-18T16:59:35.944Z,75.86
2019-05-18T17:04:40.866Z,77.84
2019-05-18T17:09:45.599Z,78.71
2019-05-18T17:14:51.014Z,79.43
2019-05-18T17:19:56.183Z,80.59
2019-05-18T17:25:01.259Z,82.08
2019-05-18T17:30:06.483Z,83.37
2019-05-18T17:35:11.922Z,84.59
2019-05-18T17:40:18.274Z,85.29
2019-05-18T17:45:23.288Z,85.41
2019-05-18T17:50:28.329Z,84.44
2019-05-18T17:55:33.225Z,85.29
2019-05-18T18:00:38.192Z,85.45
2019-05-18T18:05:43.020Z,86.26
2019-05-18T18:16:04.679Z,86.96
2019-05-18T18:21:09.660Z,86.58
2019-05-18T18:26:14.326Z,86.77
2019-05-18T18:31:19.091Z,86.92
2019-05-18T18:36:24.387Z,87.45
2019-05-18T18:46:59.707Z,88.33
2019-05-18T18:52:05.420Z,88.51
2019-05-18T19:08:08.532Z,90.12
2019-05-18T19:24:07.493Z,91.34
2019-05-18T19:29:12.244Z,91.68
2019-05-18T19:34:17.309Z,92.23
2019-05-18T19:39:22.189Z,93.06
2019-05-18T19:44:27.010Z,93.19
2019-05-18T19:49:31.767Z,93.69
2019-05-18T19:54:36.651Z,94.08
2019-05-18T19:59:41.418Z,94.78
2019-05-18T20:05:05.901Z,94.94
2019-05-18T20:09:53.045Z,94.77
2019-05-18T20:14:57.929Z,95.54
2019-05-18T20:20:02.739Z,96.73
2019-05-18T20:25:08.647Z,97.51
2019-05-18T20:30:14.112Z,98.30
2019-05-18T20:35:19.010Z,98.84
2019-05-18T20:40:24.251Z,99.31
2019-05-18T20:45:28.991Z,99.79
2019-05-18T20:50:33.759Z,100.00
2019-05-18T20:55:38.730Z,100.00
2019-05-18T21:00:43.469Z,100.00
2019-05-18T21:05:48.740Z,100.00
2019-05-18T21:10:53.686Z,100.00
2019-05-18T21:15:58.408Z,100.00
2019-05-18T21:21:03.208Z,100.00
2019-05-18T21:26:07.969Z,100.00
2019-05-18T21:31:12.922Z,100.00
2019-05-18T21:36:17.711Z,100.00
2019-05-18T21:41:22.650Z,100.00
2019-05-18T21:46:27.561Z,100.00
2019-05-18T21:51:32.382Z,100.00
2019-05-18T21:56:37.346Z,100.00
2019-05-18T22:01:42.673Z,100.00
2019-05-18T22:06:47.550Z,100.00
2019-05-18T22:11:52.310Z,100.00
2019-05-18T22:16:57.227Z,100.00
2019-05-18T22:22:02.062Z,100.00
2019-05-18T22:27:06.989Z,100.00
2019-05-18T22:32:12.045Z,100.00
2019-05-18T22:37:17.110Z,100.00
2019-05-18T22:42:22.047Z,100.00
2019-05-18T22:47:26.887Z,100.00
2019-05-18T22:52:31.790Z,100.00
2019-05-18T22:57:36.759Z,100.00
2019-05-18T23:02:41.519Z,100.00
2019-05-18T23:07:46.639Z,100.00
2019-05-18T23:12:51.507Z,100.00
2019-05-18T23:17:56.489Z,100.00
2019-05-18T23:23:01.290Z,100.00
2019-05-18T23:28:06.087Z,100.00
2019-05-18T23:33:10.911Z,100.00
2019-05-18T23:38:15.767Z,100.00
2019-05-18T23:43:20.605Z,100.00
2019-05-18T23:48:25.421Z,100.00
2019-05-18T23:53:30.123Z,100.00
2019-05-18T23:58:34.944Z,100.00
